sensor_id;sensor_type;location;lat;lon;timestamp;P1;durP1;ratioP1;P2;durP2;ratioP2
78131;SDS011;67381;47.672;9.380;2023-02-11T00:00:39;36.85;;;19.35;;
78131;SDS011;67381;47.672;9.380;2023-02-11T00:03:07;36.70;;;17.90;;
78131;SDS011;67381;47.672;9.380;2023-02-11T00:05:34;36.75;;;19.58;;
78131;SDS011;67381;47.672;9.380;2023-02-11T00:08:01;36.45;;;18.85;;
78131;SDS011;67381;47.672;9.380;2023-02-11T00:10:29;36.58;;;18.75;;
78131;SDS011;67381;47.672;9.380;2023-02-11T00:12:56;38.42;;;19.30;;
78131;SDS011;67381;47.672;9.380;2023-02-11T00:15:23;38.72;;;19.58;;
78131;SDS011;67381;47.672;9.380;2023-02-11T00:17:50;34.83;;;19.20;;
78131;SDS011;67381;47.672;9.380;2023-02-11T00:20:18;34.63;;;18.40;;
78131;SDS011;67381;47.672;9.380;2023-02-11T00:22:45;37.75;;;19.27;;
78131;SDS011;67381;47.672;9.380;2023-02-11T00:25:12;37.70;;;20.23;;
78131;SDS011;67381;47.672;9.380;2023-02-11T00:27:39;35.72;;;17.73;;
78131;SDS011;67381;47.672;9.380;2023-02-11T00:30:07;36.33;;;18.85;;
78131;SDS011;67381;47.672;9.380;2023-02-11T00:32:35;37.95;;;20.38;;
78131;SDS011;67381;47.672;9.380;2023-02-11T00:35:03;38.70;;;20.30;;
78131;SDS011;67381;47.672;9.380;2023-02-11T00:37:30;37.67;;;19.58;;
78131;SDS011;67381;47.672;9.380;2023-02-11T00:39:57;40.92;;;18.58;;
78131;SDS011;67381;47.672;9.380;2023-02-11T00:42:24;33.58;;;19.20;;
78131;SDS011;67381;47.672;9.380;2023-02-11T00:44:52;36.42;;;19.33;;
78131;SDS011;67381;47.672;9.380;2023-02-11T00:47:19;35.80;;;18.25;;
78131;SDS011;67381;47.672;9.380;2023-02-11T00:49:46;32.78;;;17.48;;
78131;SDS011;67381;47.672;9.380;2023-02-11T00:52:13;33.50;;;18.08;;
78131;SDS011;67381;47.672;9.380;2023-02-11T00:54:41;37.15;;;20.55;;
78131;SDS011;67381;47.672;9.380;2023-02-11T00:57:08;40.92;;;19.77;;
78131;SDS011;67381;47.672;9.380;2023-02-11T00:59:35;40.63;;;19.88;;
78131;SDS011;67381;47.672;9.380;2023-02-11T01:02:02;37.05;;;20.55;;
78131;SDS011;67381;47.672;9.380;2023-02-11T01:04:30;38.35;;;18.65;;
78131;SDS011;67381;47.672;9.380;2023-02-11T01:06:57;37.67;;;19.45;;
78131;SDS011;67381;47.672;9.380;2023-02-11T01:09:24;33.50;;;18.20;;
78131;SDS011;67381;47.672;9.380;2023-02-11T01:11:52;42.30;;;19.48;;
78131;SDS011;67381;47.672;9.380;2023-02-11T01:14:19;35.03;;;18.83;;
78131;SDS011;67381;47.672;9.380;2023-02-11T01:16:46;38.28;;;20.35;;
78131;SDS011;67381;47.672;9.380;2023-02-11T01:19:13;34.80;;;19.52;;
78131;SDS011;67381;47.672;9.380;2023-02-11T01:21:40;38.47;;;19.38;;
78131;SDS011;67381;47.672;9.380;2023-02-11T01:24:08;41.50;;;18.88;;
78131;SDS011;67381;47.672;9.380;2023-02-11T01:26:35;38.72;;;19.75;;
78131;SDS011;67381;47.672;9.380;2023-02-11T01:29:02;37.63;;;19.15;;
78131;SDS011;67381;47.672;9.380;2023-02-11T01:31:30;39.90;;;20.90;;
78131;SDS011;67381;47.672;9.380;2023-02-11T01:33:57;39.72;;;19.23;;
78131;SDS011;67381;47.672;9.380;2023-02-11T01:36:24;42.97;;;20.58;;
78131;SDS011;67381;47.672;9.380;2023-02-11T01:38:52;44.00;;;19.67;;
78131;SDS011;67381;47.672;9.380;2023-02-11T01:41:19;39.92;;;20.42;;
78131;SDS011;67381;47.672;9.380;2023-02-11T01:43:47;42.50;;;20.20;;
78131;SDS011;67381;47.672;9.380;2023-02-11T01:48:48;44.63;;;19.45;;
78131;SDS011;67381;47.672;9.380;2023-02-11T01:51:23;34.42;;;18.85;;
78131;SDS011;67381;47.672;9.380;2023-02-11T01:53:53;34.70;;;18.95;;
78131;SDS011;67381;47.672;9.380;2023-02-11T01:56:41;35.78;;;17.67;;
78131;SDS011;67381;47.672;9.380;2023-02-11T01:59:32;38.45;;;17.23;;
78131;SDS011;67381;47.672;9.380;2023-02-11T02:02:05;35.25;;;17.73;;
78131;SDS011;67381;47.672;9.380;2023-02-11T02:04:37;37.17;;;20.02;;
78131;SDS011;67381;47.672;9.380;2023-02-11T02:07:11;34.85;;;17.83;;
78131;SDS011;67381;47.672;9.380;2023-02-11T02:09:44;33.30;;;18.10;;
78131;SDS011;67381;47.672;9.380;2023-02-11T02:12:15;33.65;;;17.63;;
78131;SDS011;67381;47.672;9.380;2023-02-11T02:14:43;38.63;;;19.85;;
78131;SDS011;67381;47.672;9.380;2023-02-11T02:17:13;33.65;;;17.48;;
78131;SDS011;67381;47.672;9.380;2023-02-11T02:20:10;35.70;;;17.58;;
78131;SDS011;67381;47.672;9.380;2023-02-11T02:31:39;34.25;;;18.70;;
78131;SDS011;67381;47.672;9.380;2023-02-11T02:34:21;36.22;;;17.73;;
78131;SDS011;67381;47.672;9.380;2023-02-11T02:39:39;34.78;;;17.17;;
78131;SDS011;67381;47.672;9.380;2023-02-11T02:42:07;38.78;;;21.15;;
78131;SDS011;67381;47.672;9.380;2023-02-11T02:44:35;37.97;;;18.73;;
78131;SDS011;67381;47.672;9.380;2023-02-11T02:47:02;40.30;;;18.90;;
78131;SDS011;67381;47.672;9.380;2023-02-11T02:49:30;31.52;;;17.48;;
78131;SDS011;67381;47.672;9.380;2023-02-11T03:08:39;37.70;;;18.80;;
78131;SDS011;67381;47.672;9.380;2023-02-11T03:11:08;36.28;;;18.77;;
78131;SDS011;67381;47.672;9.380;2023-02-11T03:13:37;33.42;;;17.13;;
78131;SDS011;67381;47.672;9.380;2023-02-11T03:16:10;35.33;;;17.85;;
78131;SDS011;67381;47.672;9.380;2023-02-11T03:18:41;42.35;;;19.92;;
78131;SDS011;67381;47.672;9.380;2023-02-11T03:21:10;34.95;;;18.00;;
78131;SDS011;67381;47.672;9.380;2023-02-11T03:23:50;40.38;;;19.33;;
78131;SDS011;67381;47.672;9.380;2023-02-11T03:26:24;34.63;;;19.77;;
78131;SDS011;67381;47.672;9.380;2023-02-11T03:28:59;37.88;;;19.25;;
78131;SDS011;67381;47.672;9.380;2023-02-11T03:31:53;33.92;;;18.95;;
78131;SDS011;67381;47.672;9.380;2023-02-11T03:34:23;38.03;;;18.77;;
78131;SDS011;67381;47.672;9.380;2023-02-11T03:36:56;41.67;;;20.20;;
78131;SDS011;67381;47.672;9.380;2023-02-11T03:39:32;30.52;;;17.58;;
78131;SDS011;67381;47.672;9.380;2023-02-11T03:42:03;37.55;;;17.50;;
78131;SDS011;67381;47.672;9.380;2023-02-11T03:44:33;30.70;;;17.02;;
78131;SDS011;67381;47.672;9.380;2023-02-11T03:47:04;37.08;;;16.77;;
78131;SDS011;67381;47.672;9.380;2023-02-11T03:49:34;37.40;;;18.98;;
78131;SDS011;67381;47.672;9.380;2023-02-11T03:52:02;31.38;;;16.20;;
78131;SDS011;67381;47.672;9.380;2023-02-11T03:54:31;35.28;;;18.17;;
78131;SDS011;67381;47.672;9.380;2023-02-11T03:57:00;33.30;;;17.60;;
78131;SDS011;67381;47.672;9.380;2023-02-11T03:59:28;36.85;;;17.33;;
78131;SDS011;67381;47.672;9.380;2023-02-11T04:01:55;32.03;;;18.42;;
78131;SDS011;67381;47.672;9.380;2023-02-11T04:04:23;36.58;;;18.55;;
78131;SDS011;67381;47.672;9.380;2023-02-11T04:06:51;34.67;;;18.95;;
78131;SDS011;67381;47.672;9.380;2023-02-11T04:09:18;38.47;;;16.42;;
78131;SDS011;67381;47.672;9.380;2023-02-11T04:11:45;39.30;;;17.23;;
78131;SDS011;67381;47.672;9.380;2023-02-11T04:14:13;33.72;;;16.90;;
78131;SDS011;67381;47.672;9.380;2023-02-11T04:16:40;33.85;;;17.10;;
78131;SDS011;67381;47.672;9.380;2023-02-11T04:19:07;31.70;;;15.85;;
78131;SDS011;67381;47.672;9.380;2023-02-11T04:21:34;31.02;;;15.95;;
78131;SDS011;67381;47.672;9.380;2023-02-11T04:24:02;34.47;;;16.13;;
78131;SDS011;67381;47.672;9.380;2023-02-11T04:26:29;31.05;;;15.88;;
78131;SDS011;67381;47.672;9.380;2023-02-11T04:28:56;32.55;;;16.50;;
78131;SDS011;67381;47.672;9.380;2023-02-11T04:31:23;37.30;;;18.00;;
78131;SDS011;67381;47.672;9.380;2023-02-11T04:33:51;38.28;;;19.85;;
78131;SDS011;67381;47.672;9.380;2023-02-11T04:36:18;32.92;;;16.35;;
78131;SDS011;67381;47.672;9.380;2023-02-11T04:38:45;40.08;;;20.98;;
78131;SDS011;67381;47.672;9.380;2023-02-11T04:41:13;38.10;;;19.38;;
78131;SDS011;67381;47.672;9.380;2023-02-11T04:43:40;37.05;;;18.45;;
78131;SDS011;67381;47.672;9.380;2023-02-11T04:46:07;33.97;;;18.27;;
78131;SDS011;67381;47.672;9.380;2023-02-11T04:48:34;36.72;;;19.38;;
78131;SDS011;67381;47.672;9.380;2023-02-11T04:51:02;35.45;;;18.10;;
78131;SDS011;67381;47.672;9.380;2023-02-11T04:53:29;34.22;;;18.20;;
78131;SDS011;67381;47.672;9.380;2023-02-11T04:55:56;44.15;;;19.10;;
78131;SDS011;67381;47.672;9.380;2023-02-11T04:58:23;34.38;;;17.40;;
78131;SDS011;67381;47.672;9.380;2023-02-11T05:00:51;36.42;;;18.42;;
78131;SDS011;67381;47.672;9.380;2023-02-11T05:03:18;34.67;;;19.70;;
78131;SDS011;67381;47.672;9.380;2023-02-11T05:05:45;36.58;;;17.55;;
78131;SDS011;67381;47.672;9.380;2023-02-11T05:08:12;43.40;;;18.77;;
78131;SDS011;67381;47.672;9.380;2023-02-11T05:10:40;42.30;;;19.20;;
78131;SDS011;67381;47.672;9.380;2023-02-11T05:13:12;32.67;;;18.70;;
78131;SDS011;67381;47.672;9.380;2023-02-11T05:15:39;31.52;;;17.27;;
78131;SDS011;67381;47.672;9.380;2023-02-11T05:18:06;34.22;;;19.08;;
78131;SDS011;67381;47.672;9.380;2023-02-11T05:20:36;33.95;;;16.90;;
78131;SDS011;67381;47.672;9.380;2023-02-11T05:23:04;40.00;;;19.08;;
78131;SDS011;67381;47.672;9.380;2023-02-11T05:25:31;35.20;;;16.92;;
78131;SDS011;67381;47.672;9.380;2023-02-11T05:27:59;31.88;;;16.67;;
78131;SDS011;67381;47.672;9.380;2023-02-11T05:30:26;33.85;;;17.33;;
78131;SDS011;67381;47.672;9.380;2023-02-11T05:32:53;33.25;;;17.38;;
78131;SDS011;67381;47.672;9.380;2023-02-11T05:35:20;33.25;;;17.45;;
78131;SDS011;67381;47.672;9.380;2023-02-11T05:37:48;33.42;;;17.60;;
78131;SDS011;67381;47.672;9.380;2023-02-11T05:40:15;32.65;;;17.35;;
78131;SDS011;67381;47.672;9.380;2023-02-11T05:42:42;32.95;;;16.35;;
78131;SDS011;67381;47.672;9.380;2023-02-11T05:45:10;38.58;;;18.08;;
78131;SDS011;67381;47.672;9.380;2023-02-11T05:47:37;36.25;;;18.23;;
78131;SDS011;67381;47.672;9.380;2023-02-11T05:50:04;42.08;;;20.13;;
78131;SDS011;67381;47.672;9.380;2023-02-11T05:52:32;37.53;;;20.23;;
78131;SDS011;67381;47.672;9.380;2023-02-11T05:54:59;38.63;;;20.35;;
78131;SDS011;67381;47.672;9.380;2023-02-11T05:57:27;35.42;;;17.40;;
78131;SDS011;67381;47.672;9.380;2023-02-11T05:59:54;37.65;;;19.88;;
78131;SDS011;67381;47.672;9.380;2023-02-11T06:02:21;42.92;;;19.23;;
78131;SDS011;67381;47.672;9.380;2023-02-11T06:04:48;43.47;;;23.23;;
78131;SDS011;67381;47.672;9.380;2023-02-11T06:07:16;39.40;;;19.70;;
78131;SDS011;67381;47.672;9.380;2023-02-11T06:09:43;43.28;;;19.50;;
78131;SDS011;67381;47.672;9.380;2023-02-11T06:12:10;39.63;;;19.67;;
78131;SDS011;67381;47.672;9.380;2023-02-11T06:14:37;42.40;;;19.60;;
78131;SDS011;67381;47.672;9.380;2023-02-11T06:17:05;41.63;;;21.02;;
78131;SDS011;67381;47.672;9.380;2023-02-11T06:19:32;41.38;;;20.85;;
78131;SDS011;67381;47.672;9.380;2023-02-11T06:21:59;33.20;;;19.17;;
78131;SDS011;67381;47.672;9.380;2023-02-11T06:24:26;33.90;;;18.67;;
78131;SDS011;67381;47.672;9.380;2023-02-11T06:27:14;37.58;;;18.30;;
78131;SDS011;67381;47.672;9.380;2023-02-11T06:29:41;37.25;;;18.02;;
78131;SDS011;67381;47.672;9.380;2023-02-11T06:32:08;33.00;;;17.50;;
78131;SDS011;67381;47.672;9.380;2023-02-11T06:34:49;35.70;;;16.95;;
78131;SDS011;67381;47.672;9.380;2023-02-11T06:37:16;33.35;;;17.63;;
78131;SDS011;67381;47.672;9.380;2023-02-11T06:39:43;37.33;;;18.27;;
78131;SDS011;67381;47.672;9.380;2023-02-11T06:42:11;33.60;;;18.13;;
78131;SDS011;67381;47.672;9.380;2023-02-11T06:44:38;33.55;;;16.77;;
78131;SDS011;67381;47.672;9.380;2023-02-11T06:47:06;31.95;;;16.63;;
78131;SDS011;67381;47.672;9.380;2023-02-11T06:49:33;34.03;;;17.98;;
78131;SDS011;67381;47.672;9.380;2023-02-11T06:52:00;31.67;;;18.45;;
78131;SDS011;67381;47.672;9.380;2023-02-11T06:54:29;33.38;;;16.67;;
78131;SDS011;67381;47.672;9.380;2023-02-11T06:56:56;35.38;;;19.85;;
78131;SDS011;67381;47.672;9.380;2023-02-11T06:59:23;35.35;;;19.02;;
78131;SDS011;67381;47.672;9.380;2023-02-11T07:01:50;35.22;;;19.73;;
78131;SDS011;67381;47.672;9.380;2023-02-11T07:04:18;44.33;;;19.02;;
78131;SDS011;67381;47.672;9.380;2023-02-11T07:06:45;36.03;;;18.30;;
78131;SDS011;67381;47.672;9.380;2023-02-11T07:09:12;39.92;;;18.35;;
78131;SDS011;67381;47.672;9.380;2023-02-11T07:11:39;39.03;;;18.45;;
78131;SDS011;67381;47.672;9.380;2023-02-11T07:14:07;34.65;;;18.27;;
78131;SDS011;67381;47.672;9.380;2023-02-11T07:16:34;35.47;;;18.25;;
78131;SDS011;67381;47.672;9.380;2023-02-11T07:19:02;32.83;;;16.52;;
78131;SDS011;67381;47.672;9.380;2023-02-11T07:21:30;33.50;;;16.92;;
78131;SDS011;67381;47.672;9.380;2023-02-11T07:23:57;37.58;;;17.38;;
78131;SDS011;67381;47.672;9.380;2023-02-11T07:26:24;35.90;;;19.38;;
78131;SDS011;67381;47.672;9.380;2023-02-11T07:28:52;31.98;;;18.95;;
78131;SDS011;67381;47.672;9.380;2023-02-11T07:31:21;35.65;;;19.88;;
78131;SDS011;67381;47.672;9.380;2023-02-11T07:33:53;38.25;;;19.30;;
78131;SDS011;67381;47.672;9.380;2023-02-11T07:36:22;41.45;;;19.95;;
78131;SDS011;67381;47.672;9.380;2023-02-11T07:38:49;41.03;;;19.65;;
78131;SDS011;67381;47.672;9.380;2023-02-11T07:41:18;41.53;;;19.55;;
78131;SDS011;67381;47.672;9.380;2023-02-11T07:43:47;42.72;;;21.15;;
78131;SDS011;67381;47.672;9.380;2023-02-11T07:46:16;44.80;;;21.88;;
78131;SDS011;67381;47.672;9.380;2023-02-11T07:48:44;41.55;;;22.65;;
78131;SDS011;67381;47.672;9.380;2023-02-11T07:51:13;43.50;;;22.05;;
78131;SDS011;67381;47.672;9.380;2023-02-11T07:53:41;42.55;;;21.65;;
78131;SDS011;67381;47.672;9.380;2023-02-11T07:56:09;39.30;;;21.33;;
78131;SDS011;67381;47.672;9.380;2023-02-11T07:58:38;40.50;;;20.67;;
78131;SDS011;67381;47.672;9.380;2023-02-11T08:01:12;49.47;;;19.98;;
78131;SDS011;67381;47.672;9.380;2023-02-11T08:03:41;37.05;;;18.23;;
78131;SDS011;67381;47.672;9.380;2023-02-11T08:06:09;38.53;;;19.05;;
78131;SDS011;67381;47.672;9.380;2023-02-11T08:08:38;39.30;;;18.08;;
78131;SDS011;67381;47.672;9.380;2023-02-11T08:11:07;40.83;;;20.52;;
78131;SDS011;67381;47.672;9.380;2023-02-11T08:13:36;35.20;;;19.50;;
78131;SDS011;67381;47.672;9.380;2023-02-11T08:16:04;39.40;;;19.85;;
78131;SDS011;67381;47.672;9.380;2023-02-11T08:18:32;39.95;;;21.52;;
78131;SDS011;67381;47.672;9.380;2023-02-11T08:21:06;39.70;;;19.33;;
78131;SDS011;67381;47.672;9.380;2023-02-11T08:23:35;39.38;;;21.83;;
78131;SDS011;67381;47.672;9.380;2023-02-11T08:26:04;32.60;;;19.27;;
78131;SDS011;67381;47.672;9.380;2023-02-11T08:28:36;38.25;;;19.67;;
78131;SDS011;67381;47.672;9.380;2023-02-11T08:31:05;44.55;;;22.45;;
78131;SDS011;67381;47.672;9.380;2023-02-11T08:33:33;44.42;;;23.20;;
78131;SDS011;67381;47.672;9.380;2023-02-11T08:36:01;39.85;;;23.45;;
78131;SDS011;67381;47.672;9.380;2023-02-11T08:38:55;46.45;;;22.73;;
78131;SDS011;67381;47.672;9.380;2023-02-11T08:41:38;43.17;;;22.15;;
78131;SDS011;67381;47.672;9.380;2023-02-11T08:44:05;44.53;;;23.40;;
78131;SDS011;67381;47.672;9.380;2023-02-11T08:46:32;44.08;;;23.08;;
78131;SDS011;67381;47.672;9.380;2023-02-11T08:48:59;37.70;;;20.92;;
78131;SDS011;67381;47.672;9.380;2023-02-11T08:51:27;45.13;;;23.05;;
78131;SDS011;67381;47.672;9.380;2023-02-11T08:53:57;38.72;;;21.17;;
78131;SDS011;67381;47.672;9.380;2023-02-11T08:56:25;39.38;;;21.25;;
78131;SDS011;67381;47.672;9.380;2023-02-11T08:58:53;39.72;;;21.40;;
78131;SDS011;67381;47.672;9.380;2023-02-11T09:01:21;40.45;;;22.33;;
78131;SDS011;67381;47.672;9.380;2023-02-11T09:03:51;40.20;;;19.83;;
78131;SDS011;67381;47.672;9.380;2023-02-11T09:06:19;43.72;;;23.27;;
78131;SDS011;67381;47.672;9.380;2023-02-11T09:08:48;40.63;;;22.17;;
78131;SDS011;67381;47.672;9.380;2023-02-11T09:11:18;42.28;;;22.77;;
78131;SDS011;67381;47.672;9.380;2023-02-11T09:13:46;36.13;;;20.85;;
78131;SDS011;67381;47.672;9.380;2023-02-11T09:16:15;37.28;;;20.92;;
78131;SDS011;67381;47.672;9.380;2023-02-11T09:18:46;39.47;;;19.83;;
78131;SDS011;67381;47.672;9.380;2023-02-11T09:21:14;44.65;;;22.63;;
78131;SDS011;67381;47.672;9.380;2023-02-11T09:23:42;36.47;;;21.40;;
78131;SDS011;67381;47.672;9.380;2023-02-11T09:26:17;41.75;;;23.10;;
78131;SDS011;67381;47.672;9.380;2023-02-11T09:28:46;39.63;;;21.23;;
78131;SDS011;67381;47.672;9.380;2023-02-11T09:31:15;41.63;;;23.13;;
78131;SDS011;67381;47.672;9.380;2023-02-11T09:33:44;42.58;;;22.13;;
78131;SDS011;67381;47.672;9.380;2023-02-11T09:36:17;44.75;;;23.63;;
78131;SDS011;67381;47.672;9.380;2023-02-11T09:38:46;39.00;;;21.17;;
78131;SDS011;67381;47.672;9.380;2023-02-11T09:41:19;38.22;;;20.77;;
78131;SDS011;67381;47.672;9.380;2023-02-11T09:43:55;40.13;;;22.08;;
78131;SDS011;67381;47.672;9.380;2023-02-11T09:46:24;39.50;;;21.95;;
78131;SDS011;67381;47.672;9.380;2023-02-11T09:48:53;40.33;;;20.38;;
78131;SDS011;67381;47.672;9.380;2023-02-11T09:54:14;38.63;;;21.30;;
78131;SDS011;67381;47.672;9.380;2023-02-11T09:56:45;38.67;;;21.77;;
78131;SDS011;67381;47.672;9.380;2023-02-11T09:59:13;36.67;;;21.85;;
78131;SDS011;67381;47.672;9.380;2023-02-11T10:02:01;36.03;;;21.00;;
78131;SDS011;67381;47.672;9.380;2023-02-11T10:13:14;38.10;;;20.52;;
78131;SDS011;67381;47.672;9.380;2023-02-11T10:15:53;33.28;;;19.95;;
78131;SDS011;67381;47.672;9.380;2023-02-11T10:21:29;40.53;;;20.98;;
78131;SDS011;67381;47.672;9.380;2023-02-11T10:23:59;39.30;;;19.85;;
78131;SDS011;67381;47.672;9.380;2023-02-11T10:26:29;35.13;;;20.40;;
78131;SDS011;67381;47.672;9.380;2023-02-11T10:28:58;40.75;;;21.95;;
78131;SDS011;67381;47.672;9.380;2023-02-11T10:31:36;39.85;;;21.00;;
78131;SDS011;67381;47.672;9.380;2023-02-11T10:34:09;39.05;;;22.75;;
78131;SDS011;67381;47.672;9.380;2023-02-11T10:39:13;41.80;;;20.85;;
78131;SDS011;67381;47.672;9.380;2023-02-11T10:41:46;38.58;;;21.85;;
78131;SDS011;67381;47.672;9.380;2023-02-11T10:44:27;40.70;;;23.40;;
78131;SDS011;67381;47.672;9.380;2023-02-11T10:46:56;41.42;;;23.65;;
78131;SDS011;67381;47.672;9.380;2023-02-11T10:49:32;37.67;;;23.40;;
78131;SDS011;67381;47.672;9.380;2023-02-11T10:52:11;45.92;;;24.73;;
78131;SDS011;67381;47.672;9.380;2023-02-11T10:54:41;47.33;;;24.88;;
78131;SDS011;67381;47.672;9.380;2023-02-11T10:57:10;42.05;;;22.77;;
78131;SDS011;67381;47.672;9.380;2023-02-11T10:59:44;52.05;;;26.83;;
78131;SDS011;67381;47.672;9.380;2023-02-11T11:04:58;47.15;;;24.33;;
78131;SDS011;67381;47.672;9.380;2023-02-11T11:07:28;50.22;;;27.73;;
78131;SDS011;67381;47.672;9.380;2023-02-11T11:10:02;57.40;;;29.38;;
78131;SDS011;67381;47.672;9.380;2023-02-11T11:17:48;47.88;;;26.75;;
78131;SDS011;67381;47.672;9.380;2023-02-11T11:22:50;48.33;;;28.75;;
78131;SDS011;67381;47.672;9.380;2023-02-11T11:25:28;48.78;;;26.92;;
78131;SDS011;67381;47.672;9.380;2023-02-11T11:27:56;47.55;;;27.98;;
78131;SDS011;67381;47.672;9.380;2023-02-11T11:30:26;51.83;;;27.83;;
78131;SDS011;67381;47.672;9.380;2023-02-11T11:32:57;54.90;;;26.92;;
78131;SDS011;67381;47.672;9.380;2023-02-11T11:35:26;48.95;;;26.23;;
78131;SDS011;67381;47.672;9.380;2023-02-11T11:37:56;46.97;;;27.40;;
78131;SDS011;67381;47.672;9.380;2023-02-11T11:40:28;51.28;;;26.73;;
78131;SDS011;67381;47.672;9.380;2023-02-11T11:43:04;47.60;;;27.05;;
78131;SDS011;67381;47.672;9.380;2023-02-11T11:45:53;50.78;;;27.20;;
78131;SDS011;67381;47.672;9.380;2023-02-11T11:48:38;47.47;;;27.20;;
78131;SDS011;67381;47.672;9.380;2023-02-11T11:51:09;47.67;;;26.08;;
78131;SDS011;67381;47.672;9.380;2023-02-11T11:53:39;50.80;;;25.92;;
78131;SDS011;67381;47.672;9.380;2023-02-11T11:56:21;46.30;;;24.70;;
78131;SDS011;67381;47.672;9.380;2023-02-11T11:58:49;49.13;;;25.17;;
78131;SDS011;67381;47.672;9.380;2023-02-11T12:01:40;45.40;;;24.70;;
78131;SDS011;67381;47.672;9.380;2023-02-11T12:13:01;41.72;;;24.10;;
78131;SDS011;67381;47.672;9.380;2023-02-11T12:27:20;41.38;;;23.00;;
78131;SDS011;67381;47.672;9.380;2023-02-11T12:32:48;45.72;;;24.77;;
78131;SDS011;67381;47.672;9.380;2023-02-11T12:38:11;41.38;;;23.63;;
78131;SDS011;67381;47.672;9.380;2023-02-11T12:44:06;37.67;;;21.67;;
78131;SDS011;67381;47.672;9.380;2023-02-11T12:46:39;39.65;;;22.17;;
78131;SDS011;67381;47.672;9.380;2023-02-11T12:54:45;36.88;;;20.95;;
78131;SDS011;67381;47.672;9.380;2023-02-11T12:57:25;36.78;;;21.88;;
78131;SDS011;67381;47.672;9.380;2023-02-11T13:05:33;36.13;;;21.15;;
78131;SDS011;67381;47.672;9.380;2023-02-11T13:10:53;38.78;;;22.10;;
78131;SDS011;67381;47.672;9.380;2023-02-11T13:13:27;41.00;;;23.20;;
78131;SDS011;67381;47.672;9.380;2023-02-11T13:16:00;40.78;;;23.15;;
78131;SDS011;67381;47.672;9.380;2023-02-11T13:33:00;37.15;;;21.50;;
78131;SDS011;67381;47.672;9.380;2023-02-11T13:37:59;39.55;;;21.80;;
78131;SDS011;67381;47.672;9.380;2023-02-11T13:40:32;38.80;;;20.90;;
78131;SDS011;67381;47.672;9.380;2023-02-11T13:43:02;40.97;;;21.05;;
78131;SDS011;67381;47.672;9.380;2023-02-11T13:45:43;33.35;;;20.15;;
78131;SDS011;67381;47.672;9.380;2023-02-11T13:50:54;38.33;;;21.55;;
78131;SDS011;67381;47.672;9.380;2023-02-11T13:53:23;40.35;;;22.02;;
78131;SDS011;67381;47.672;9.380;2023-02-11T13:55:51;34.15;;;20.55;;
78131;SDS011;67381;47.672;9.380;2023-02-11T13:58:46;38.72;;;22.08;;
78131;SDS011;67381;47.672;9.380;2023-02-11T14:04:20;41.42;;;21.90;;
78131;SDS011;67381;47.672;9.380;2023-02-11T14:07:24;34.83;;;19.33;;
78131;SDS011;67381;47.672;9.380;2023-02-11T14:13:30;35.50;;;20.00;;
78131;SDS011;67381;47.672;9.380;2023-02-11T14:16:11;35.33;;;18.58;;
78131;SDS011;67381;47.672;9.380;2023-02-11T14:23:50;38.72;;;19.65;;
78131;SDS011;67381;47.672;9.380;2023-02-11T14:26:27;37.20;;;19.83;;
78131;SDS011;67381;47.672;9.380;2023-02-11T14:29:10;39.70;;;21.88;;
78131;SDS011;67381;47.672;9.380;2023-02-11T14:31:42;41.92;;;20.88;;
78131;SDS011;67381;47.672;9.380;2023-02-11T14:34:20;39.95;;;22.50;;
78131;SDS011;67381;47.672;9.380;2023-02-11T14:36:57;39.75;;;21.00;;
78131;SDS011;67381;47.672;9.380;2023-02-11T14:42:21;45.13;;;21.65;;
78131;SDS011;67381;47.672;9.380;2023-02-11T14:44:54;37.25;;;21.00;;
78131;SDS011;67381;47.672;9.380;2023-02-11T14:47:44;37.40;;;22.13;;
78131;SDS011;67381;47.672;9.380;2023-02-11T14:50:26;42.13;;;22.88;;
78131;SDS011;67381;47.672;9.380;2023-02-11T14:52:59;38.28;;;22.30;;
78131;SDS011;67381;47.672;9.380;2023-02-11T14:55:34;40.75;;;22.60;;
78131;SDS011;67381;47.672;9.380;2023-02-11T15:00:51;36.47;;;21.13;;
78131;SDS011;67381;47.672;9.380;2023-02-11T15:05:56;38.00;;;21.77;;
78131;SDS011;67381;47.672;9.380;2023-02-11T15:08:34;33.08;;;19.73;;
78131;SDS011;67381;47.672;9.380;2023-02-11T15:11:06;33.20;;;20.02;;
78131;SDS011;67381;47.672;9.380;2023-02-11T15:13:36;38.92;;;21.73;;
78131;SDS011;67381;47.672;9.380;2023-02-11T15:16:05;45.50;;;23.58;;
78131;SDS011;67381;47.672;9.380;2023-02-11T15:18:34;38.50;;;20.38;;
78131;SDS011;67381;47.672;9.380;2023-02-11T15:21:04;37.42;;;20.77;;
78131;SDS011;67381;47.672;9.380;2023-02-11T15:23:31;38.13;;;20.42;;
78131;SDS011;67381;47.672;9.380;2023-02-11T15:26:02;36.95;;;20.83;;
78131;SDS011;67381;47.672;9.380;2023-02-11T15:28:43;36.22;;;20.95;;
78131;SDS011;67381;47.672;9.380;2023-02-11T15:31:15;36.63;;;20.80;;
78131;SDS011;67381;47.672;9.380;2023-02-11T15:33:44;36.72;;;20.08;;
78131;SDS011;67381;47.672;9.380;2023-02-11T15:36:12;34.05;;;19.27;;
78131;SDS011;67381;47.672;9.380;2023-02-11T15:38:40;37.30;;;21.25;;
78131;SDS011;67381;47.672;9.380;2023-02-11T15:41:26;34.05;;;20.38;;
78131;SDS011;67381;47.672;9.380;2023-02-11T15:44:03;38.60;;;20.70;;
78131;SDS011;67381;47.672;9.380;2023-02-11T15:46:35;36.42;;;20.30;;
78131;SDS011;67381;47.672;9.380;2023-02-11T15:49:04;37.92;;;20.83;;
78131;SDS011;67381;47.672;9.380;2023-02-11T15:51:34;36.25;;;19.48;;
78131;SDS011;67381;47.672;9.380;2023-02-11T15:56:38;38.83;;;21.10;;
78131;SDS011;67381;47.672;9.380;2023-02-11T16:01:41;39.03;;;20.60;;
78131;SDS011;67381;47.672;9.380;2023-02-11T16:04:13;42.13;;;22.27;;
78131;SDS011;67381;47.672;9.380;2023-02-11T16:06:42;40.30;;;20.63;;
78131;SDS011;67381;47.672;9.380;2023-02-11T16:14:21;40.22;;;21.60;;
78131;SDS011;67381;47.672;9.380;2023-02-11T16:16:50;38.60;;;21.40;;
78131;SDS011;67381;47.672;9.380;2023-02-11T16:19:19;37.72;;;21.80;;
78131;SDS011;67381;47.672;9.380;2023-02-11T16:21:50;35.25;;;19.60;;
78131;SDS011;67381;47.672;9.380;2023-02-11T16:24:21;36.53;;;20.40;;
78131;SDS011;67381;47.672;9.380;2023-02-11T16:26:51;41.08;;;20.52;;
78131;SDS011;67381;47.672;9.380;2023-02-11T16:29:27;38.92;;;20.63;;
78131;SDS011;67381;47.672;9.380;2023-02-11T16:32:09;36.58;;;20.42;;
78131;SDS011;67381;47.672;9.380;2023-02-11T16:34:41;37.15;;;20.23;;
78131;SDS011;67381;47.672;9.380;2023-02-11T16:37:08;37.78;;;19.25;;
78131;SDS011;67381;47.672;9.380;2023-02-11T16:39:35;43.42;;;22.77;;
78131;SDS011;67381;47.672;9.380;2023-02-11T16:42:03;45.40;;;23.50;;
78131;SDS011;67381;47.672;9.380;2023-02-11T16:44:33;39.85;;;21.55;;
78131;SDS011;67381;47.672;9.380;2023-02-11T16:47:01;42.03;;;21.55;;
78131;SDS011;67381;47.672;9.380;2023-02-11T16:49:31;38.25;;;20.25;;
78131;SDS011;67381;47.672;9.380;2023-02-11T16:52:01;39.92;;;21.00;;
78131;SDS011;67381;47.672;9.380;2023-02-11T16:54:32;34.22;;;19.10;;
78131;SDS011;67381;47.672;9.380;2023-02-11T16:57:00;39.60;;;20.63;;
78131;SDS011;67381;47.672;9.380;2023-02-11T16:59:31;44.60;;;20.52;;
78131;SDS011;67381;47.672;9.380;2023-02-11T17:01:58;37.95;;;20.92;;
78131;SDS011;67381;47.672;9.380;2023-02-11T17:04:26;38.80;;;20.25;;
78131;SDS011;67381;47.672;9.380;2023-02-11T17:06:54;41.45;;;20.42;;
78131;SDS011;67381;47.672;9.380;2023-02-11T17:09:25;44.90;;;22.83;;
78131;SDS011;67381;47.672;9.380;2023-02-11T17:11:56;40.88;;;20.92;;